Terri L. Brusco — WDC3034 — position and weather

sailwx.info

Track history (hours):
 
Tides and Currents Weather Stations Pressure Air Temp Water Temp Dewpoint Dewpoint Depression Visibility Wind Speed Wind Dir Waves Ship Positions

Terri L. Brusco

Owner: Brusco Tug & Barge, Inc., Longview, WA. More information available from US FCC via Universal Licensing System and Coast Guard Vessel Documentation Center.

Last reported at 2014-Dec-01 22:30 UTC. Time now 2014-Dec-22 22:45 UTC.
Position N 38°04' W 122°13'.
Warning: this ship's position is 21 days out of date.

Length 21 m; draft 3 m.

Type: Tug. MMSI: 367001830.

Date/timePositionNaut miles runAvg speedWind from/ knotsBaromVisibWave heightAir tempDewpointWater temp
2014-Dec-01 22:30N 38°04' W 122°13'7 7.9
2014-Dec-01 21:33N 38°02' W 122°22'7 7.3
2014-Dec-01 20:33N 37°54' W 122°24'1 1.3
2014-Dec-01 19:33N 37°54' W 122°22'0 0.0
2014-Dec-01 18:33N 37°54' W 122°22'0 0.0
2014-Dec-01 17:33N 37°54' W 122°22'0 0.0
2014-Dec-01 16:33N 37°54' W 122°22'3 2.8
2014-Dec-01 15:33N 37°56' W 122°25'5 5.0
2014-Dec-01 14:33N 38°01' W 122°25'8 7.7
2014-Dec-01 13:33N 37°53' W 122°25'6 6.4
2014-Dec-01 12:33N 37°47' W 122°23'6 5.7
2014-Dec-01 11:33N 37°42' W 122°20'6 6.3
2014-Dec-01 10:33N 37°36' W 122°16'6 5.7
2014-Dec-01 09:32N 37°31' W 122°13'2 2.4
2014-Dec-01 08:33N 37°33' W 122°12'0 0.0
2014-Dec-01 07:33N 37°33' W 122°12'3 2.6
2014-Dec-01 06:32N 37°31' W 122°13'2 2.5
2014-Dec-01 05:33N 37°33' W 122°12'0 0.2
2014-Dec-01 04:33N 37°33' W 122°12'0 0.1
2014-Dec-01 03:33N 37°33' W 122°11'0 0.1
2014-Dec-01 02:33N 37°33' W 122°12'0 0.0
2014-Dec-01 01:33N 37°33' W 122°12'0 0.0
2014-Dec-01 00:33N 37°33' W 122°12'0 0.0
2014-Nov-30 23:33N 37°33' W 122°12'0 0.1
2014-Nov-30 22:33N 37°33' W 122°12'0 0.0
2014-Nov-30 21:33N 37°33' W 122°12'0 0.0
2014-Nov-30 20:33N 37°33' W 122°12'0 0.0
2014-Nov-30 19:33N 37°33' W 122°12'0 0.0
2014-Nov-30 18:33N 37°33' W 122°12'0 0.1
2014-Nov-30 17:33N 37°33' W 122°12'6 5.8
2014-Nov-30 16:33N 37°37' W 122°17'9 8.9
2014-Nov-30 15:33N 37°45' W 122°21'9 9.2
2014-Nov-30 14:33N 37°54' W 122°26'7 7.1
2014-Nov-30 13:33N 38°01' W 122°25'8 8.3
2014-Nov-30 12:33N 37°52' W 122°25'6 6.2
2014-Nov-30 11:33N 37°47' W 122°23'6 6.1
2014-Nov-30 10:33N 37°41' W 122°20'7 6.7
2014-Nov-30 09:33N 37°35' W 122°15'5 4.5
2014-Nov-30 08:30N 37°31' W 122°12'6 5.9
2014-Nov-30 07:33N 37°36' W 122°16'7 7.1
2014-Nov-30 06:33N 37°42' W 122°20'7 6.9
2014-Nov-30 05:33N 37°49' W 122°24'9 8.6
2014-Nov-30 04:33N 37°57' W 122°27'1 1.5
2014-Nov-30 03:33N 37°58' W 122°27'7 6.8
2014-Nov-30 02:33N 37°52' W 122°24'7 7.1
2014-Nov-30 01:33N 37°45' W 122°22'6 6.5
2014-Nov-30 00:33N 37°39' W 122°19'6 6.1
2014-Nov-29 23:33N 37°34' W 122°14'3 3.4
2014-Nov-29 22:33N 37°31' W 122°12'8 8.2
2014-Nov-29 21:33N 37°38' W 122°18'10 9.7
2014-Nov-29 20:33N 37°47' W 122°23'10 9.8
2014-Nov-29 19:33N 37°56' W 122°27'3 2.7
2014-Nov-29 18:33N 37°59' W 122°26'6 5.7
2014-Nov-29 17:33N 37°53' W 122°25'9 8.5
2014-Nov-29 16:33N 37°45' W 122°22'8 8.3
2014-Nov-29 15:33N 37°37' W 122°18'7 7.1
2014-Nov-29 14:33N 37°32' W 122°12'3 2.6
2014-Nov-29 13:33N 37°34' W 122°13'9 8.9
2014-Nov-29 12:33N 37°41' W 122°20'10 9.5
2014-Nov-29 11:33N 37°50' W 122°24'7 6.9
2014-Nov-29 10:33N 37°57' W 122°27'2 2.3
2014-Nov-29 09:33N 37°59' W 122°26'0 0.4
2014-Nov-29 08:33N 37°59' W 122°26'1 0.7
2014-Nov-29 07:33N 37°59' W 122°26'0 0.4
2014-Nov-29 06:33N 37°60' W 122°26'4 4.3
2014-Nov-29 05:33N 37°56' W 122°27'6 5.5
2014-Nov-29 04:33N 37°51' W 122°24'9 8.6
2014-Nov-29 03:33N 37°43' W 122°20'8 7.9
2014-Nov-29 02:33N 37°35' W 122°16'5 5.0
2014-Nov-29 01:33N 37°31' W 122°12'2 2.2
2014-Nov-29 00:33N 37°33' W 122°11'0 0.1
2014-Nov-28 23:33N 37°33' W 122°12'0 0.0
2014-Nov-28 22:33N 37°33' W 122°11'0 0.0
2014-Nov-28 21:33N 37°33' W 122°11'9 8.6
2014-Nov-28 20:33N 37°39' W 122°19'10 9.8
2014-Nov-28 19:33N 37°48' W 122°23'9 9.2
2014-Nov-28 18:33N 37°57' W 122°27'1 1.3
2014-Nov-28 17:33N 37°59' W 122°26'6 5.6
2014-Nov-28 16:33N 37°53' W 122°25'8 8.1
2014-Nov-28 15:33N 37°45' W 122°22'8 8.1
2014-Nov-28 14:33N 37°38' W 122°18'7 7.0
2014-Nov-28 13:33N 37°33' W 122°12'3 2.6
2014-Nov-28 12:32N 37°31' W 122°13'0 0.0
2014-Nov-28 11:32N 37°31' W 122°13'0 0.0
2014-Nov-28 10:15N 37°31' W 122°13'0 0.0
2014-Nov-28 09:30N 37°31' W 122°13'0 0.0
2014-Nov-28 08:33N 37°31' W 122°13'0 0.0
2014-Nov-28 07:16N 37°31' W 122°13'0 0.0
2014-Nov-28 06:27N 37°31' W 122°13'0 0.0
2014-Nov-28 05:25N 37°31' W 122°13'2 2.1
2014-Nov-28 04:33N 37°32' W 122°12'2 0.5
2014-Nov-28 00:30N 37°31' W 122°13'0 0.0
2014-Nov-27 23:33N 37°31' W 122°13'0 0.0
2014-Nov-27 22:32N 37°31' W 122°13'0 0.0
2014-Nov-27 21:33N 37°31' W 122°13'0 0.0
2014-Nov-27 20:33N 37°31' W 122°13'0 0.0
2014-Nov-27 19:33N 37°31' W 122°13'0 0.0
2014-Nov-27 18:31N 37°31' W 122°13'0 0.0
2014-Nov-27 17:33N 37°31' W 122°13'0 0.0
2014-Nov-27 16:33N 37°31' W 122°13'0 0.0
2014-Nov-27 15:33N 37°31' W 122°13'0 0.0
2014-Nov-27 14:33N 37°31' W 122°13'0 0.0
2014-Nov-27 13:33N 37°31' W 122°13'3 2.8
2014-Nov-27 12:32N 37°33' W 122°12'2 2.1
2014-Nov-27 11:33N 37°31' W 122°12'2 2.0
2014-Nov-27 10:33N 37°33' W 122°11'4 3.8
2014-Nov-27 09:33N 37°35' W 122°15'6 5.9
2014-Nov-27 08:33N 37°40' W 122°19'6 5.7
2014-Nov-27 07:33N 37°46' W 122°22'6 6.1
2014-Nov-27 06:33N 37°52' W 122°24'4 3.7
2014-Nov-27 05:33N 37°55' W 122°25'5 5.3
2014-Nov-27 04:33N 38°01' W 122°25'3 2.6
2014-Nov-27 03:33N 37°58' W 122°26'3 3.0
2014-Nov-27 02:33N 37°55' W 122°25'1 1.4
2014-Nov-27 01:33N 37°54' W 122°23'1 1.0
2014-Nov-27 00:33N 37°54' W 122°22'4 3.6
2014-Nov-26 23:33N 37°56' W 122°26'2 2.2
2014-Nov-26 22:33N 37°59' W 122°26'2 2.3
2014-Nov-26 21:33N 37°56' W 122°26'3 2.6
2014-Nov-26 20:31N 37°59' W 122°26'0 0.0
2014-Nov-26 19:33N 37°59' W 122°26'4 4.2
2014-Nov-26 18:33N 37°55' W 122°24'0 0.0
2014-Nov-26 17:33N 37°55' W 122°24'0 0.1
2014-Nov-26 16:33N 37°55' W 122°25'0 0.0
2014-Nov-26 15:33N 37°55' W 122°25'0 0.0
2014-Nov-26 14:33N 37°55' W 122°25'0 0.0
2014-Nov-26 13:33N 37°55' W 122°25'0 0.1
2014-Nov-26 12:33N 37°55' W 122°25'4 4.0
2014-Nov-26 11:33N 37°59' W 122°25'5 4.4
2014-Nov-26 10:25N 38°02' W 122°20'4 4.3
2014-Nov-26 09:33N 38°04' W 122°16'5 4.9
2014-Nov-26 08:26N 38°02' W 122°09'14 4.8
2014-Nov-26 05:23N 38°04' W 121°51'5 1.1
2014-Nov-26 01:18N 38°03' W 121°57'1 0.2
2014-Nov-25 18:32N 38°04' W 121°58'4 2.9
2014-Nov-25 17:15N 38°04' W 122°03'7 9.9
2014-Nov-25 16:33N 38°03' W 121°54'2 1.6
2014-Nov-25 15:27N 38°03' W 121°56'7 1.2
2014-Nov-25 09:20N 38°03' W 122°06'4 4.7
2014-Nov-25 08:33N 38°03' W 122°10'5 5.2
2014-Nov-25 07:33N 38°03' W 122°17'5 4.8
2014-Nov-25 06:33N 38°02' W 122°23'5 4.8
2014-Nov-25 05:33N 37°58' W 122°26'4 4.1
2014-Nov-25 04:33N 37°54' W 122°26'4 4.0
2014-Nov-25 03:33N 37°50' W 122°24'4 4.1
2014-Nov-25 02:33N 37°46' W 122°22'5 5.4
2014-Nov-25 01:33N 37°41' W 122°20'6 5.6
2014-Nov-25 00:33N 37°36' W 122°17'6 5.5
2014-Nov-24 23:28N 37°32' W 122°12'2 1.6
2014-Nov-24 22:29N 37°31' W 122°13'0 0.0
2014-Nov-24 19:24N 37°31' W 122°13'0 0.0
2014-Nov-24 18:32N 37°31' W 122°13'0 0.0
2014-Nov-24 17:33N 37°31' W 122°13'0 0.0
2014-Nov-24 16:20N 37°31' W 122°13'0 0.0
2014-Nov-24 15:20N 37°31' W 122°13'0 0.0
2014-Nov-24 14:30N 37°31' W 122°13'0 0.0
2014-Nov-24 13:33N 37°31' W 122°13'0 0.0
2014-Nov-24 12:32N 37°31' W 122°13'2 2.3
2014-Nov-24 11:33N 37°33' W 122°12'8 8.2
2014-Nov-24 10:33N 37°39' W 122°19'9 8.8
2014-Nov-24 09:33N 37°47' W 122°23'8 8.4
2014-Nov-24 08:33N 37°55' W 122°27'6 6.0
2014-Nov-24 07:32N 38°01' W 122°25'7 7.4
2014-Nov-24 06:33N 37°54' W 122°26'6 6.2
2014-Nov-24 05:33N 37°48' W 122°23'5 5.4
2014-Nov-24 04:33N 37°43' W 122°21'7 6.6
2014-Nov-24 03:33N 37°37' W 122°17'6 6.3
2014-Nov-24 02:31N 37°31' W 122°12'1 0.7
2014-Nov-24 01:11N 37°31' W 122°13'0 0.0
2014-Nov-24 00:30N 37°31' W 122°13'0 0.0
2014-Nov-23 23:25N 37°31' W 122°13'0 0.0
2014-Nov-23 22:24N 37°31' W 122°13'1 0.3
2014-Nov-23 18:16N 37°32' W 122°12'2 2.8
2014-Nov-23 17:33N 37°34' W 122°12'10 9.5
2014-Nov-23 16:33N 37°41' W 122°20'1010.1
2014-Nov-23 15:33N 37°50' W 122°24'9 8.8
2014-Nov-23 14:31N 37°60' W 122°26'3 2.7
2014-Nov-23 13:33N 37°57' W 122°27'6 5.6
2014-Nov-23 12:33N 37°52' W 122°25'9 8.5
2014-Nov-23 11:33N 37°44' W 122°21'8 7.6
2014-Nov-23 10:33N 37°37' W 122°17'6 6.4
2014-Nov-23 09:33N 37°32' W 122°12'1 1.4
2014-Nov-23 08:33N 37°31' W 122°13'0 0.1
2014-Nov-23 07:33N 37°31' W 122°13'2 2.3
2014-Nov-23 06:33N 37°33' W 122°12'10 2.6
2014-Nov-23 02:33N 37°41' W 122°20'9 8.9
2014-Nov-23 01:33N 37°49' W 122°24'9 9.3
2014-Nov-23 00:33N 37°58' W 122°26'0 0.2
2014-Nov-22 23:33N 37°58' W 122°27'5 4.8
2014-Nov-22 22:33N 37°53' W 122°26'8 8.0
2014-Nov-22 21:33N 37°46' W 122°22'8 8.5
2014-Nov-22 20:33N 37°38' W 122°18'7 6.8
2014-Nov-22 19:33N 37°33' W 122°12'1 0.8
2014-Nov-22 18:33N 37°34' W 122°13'9 9.1
2014-Nov-22 17:33N 37°41' W 122°20'10 9.8
2014-Nov-22 16:33N 37°50' W 122°24'7 7.2
2014-Nov-22 15:33N 37°57' W 122°27'2 2.0
2014-Nov-22 14:33N 37°59' W 122°26'6 6.3
2014-Nov-22 13:33N 37°53' W 122°25'8 7.6
2014-Nov-22 12:33N 37°46' W 122°22'8 8.1
2014-Nov-22 11:33N 37°38' W 122°18'8 7.9
2014-Nov-22 10:32N 37°32' W 122°12'0 0.1
2014-Nov-22 09:33N 37°32' W 122°12'9 8.7
2014-Nov-22 08:33N 37°39' W 122°18'10 9.6
2014-Nov-22 07:33N 37°48' W 122°23'8 8.2
2014-Nov-22 06:33N 37°55' W 122°27'6 5.5
2014-Nov-22 05:33N 38°01' W 122°25'7 7.5
2014-Nov-22 04:33N 37°53' W 122°25'6 6.5
2014-Nov-22 03:33N 37°47' W 122°23'7 6.6
2014-Nov-22 02:33N 37°41' W 122°20'8 7.9
2014-Nov-22 01:33N 37°34' W 122°14'3 2.5
2014-Nov-22 00:33N 37°33' W 122°12'7 6.7
2014-Nov-21 23:33N 37°37' W 122°17'7 6.8
2014-Nov-21 22:33N 37°44' W 122°21'  
Track history (hours):
 
Tides and Currents Weather Stations Pressure Air Temp Water Temp Dewpoint Dewpoint Depression Visibility Wind Speed Wind Dir Waves Ship Positions

Terri L. Brusco

Owner: Brusco Tug & Barge, Inc., Longview, WA. More information available from US FCC via Universal Licensing System and Coast Guard Vessel Documentation Center.

Last reported at 2014-Dec-01 22:30 UTC. Time now 2014-Dec-22 22:45 UTC.
Position N 38°04' W 122°13'.
Warning: this ship's position is 21 days out of date.

Length 21 m; draft 3 m.

Type: Tug. MMSI: 367001830.

Date/timePositionNaut miles runAvg speedWind from/ knotsBaromVisibWave heightAir tempDewpointWater temp
2014-Dec-01 22:30N 38°04' W 122°13'7 7.9
2014-Dec-01 21:33N 38°02' W 122°22'7 7.3
2014-Dec-01 20:33N 37°54' W 122°24'1 1.3
2014-Dec-01 19:33N 37°54' W 122°22'0 0.0
2014-Dec-01 18:33N 37°54' W 122°22'0 0.0
2014-Dec-01 17:33N 37°54' W 122°22'0 0.0
2014-Dec-01 16:33N 37°54' W 122°22'3 2.8
2014-Dec-01 15:33N 37°56' W 122°25'5 5.0
2014-Dec-01 14:33N 38°01' W 122°25'8 7.7
2014-Dec-01 13:33N 37°53' W 122°25'6 6.4
2014-Dec-01 12:33N 37°47' W 122°23'6 5.7
2014-Dec-01 11:33N 37°42' W 122°20'6 6.3
2014-Dec-01 10:33N 37°36' W 122°16'6 5.7
2014-Dec-01 09:32N 37°31' W 122°13'2 2.4
2014-Dec-01 08:33N 37°33' W 122°12'0 0.0
2014-Dec-01 07:33N 37°33' W 122°12'3 2.6
2014-Dec-01 06:32N 37°31' W 122°13'2 2.5
2014-Dec-01 05:33N 37°33' W 122°12'0 0.2
2014-Dec-01 04:33N 37°33' W 122°12'0 0.1
2014-Dec-01 03:33N 37°33' W 122°11'0 0.1
2014-Dec-01 02:33N 37°33' W 122°12'0 0.0
2014-Dec-01 01:33N 37°33' W 122°12'0 0.0
2014-Dec-01 00:33N 37°33' W 122°12'0 0.0
2014-Nov-30 23:33N 37°33' W 122°12'0 0.1
2014-Nov-30 22:33N 37°33' W 122°12'0 0.0
2014-Nov-30 21:33N 37°33' W 122°12'0 0.0
2014-Nov-30 20:33N 37°33' W 122°12'0 0.0
2014-Nov-30 19:33N 37°33' W 122°12'0 0.0
2014-Nov-30 18:33N 37°33' W 122°12'0 0.1
2014-Nov-30 17:33N 37°33' W 122°12'6 5.8
2014-Nov-30 16:33N 37°37' W 122°17'9 8.9
2014-Nov-30 15:33N 37°45' W 122°21'9 9.2
2014-Nov-30 14:33N 37°54' W 122°26'7 7.1
2014-Nov-30 13:33N 38°01' W 122°25'8 8.3
2014-Nov-30 12:33N 37°52' W 122°25'6 6.2
2014-Nov-30 11:33N 37°47' W 122°23'6 6.1
2014-Nov-30 10:33N 37°41' W 122°20'7 6.7
2014-Nov-30 09:33N 37°35' W 122°15'5 4.5
2014-Nov-30 08:30N 37°31' W 122°12'6 5.9
2014-Nov-30 07:33N 37°36' W 122°16'7 7.1
2014-Nov-30 06:33N 37°42' W 122°20'7 6.9
2014-Nov-30 05:33N 37°49' W 122°24'9 8.6
2014-Nov-30 04:33N 37°57' W 122°27'1 1.5
2014-Nov-30 03:33N 37°58' W 122°27'7 6.8
2014-Nov-30 02:33N 37°52' W 122°24'7 7.1
2014-Nov-30 01:33N 37°45' W 122°22'6 6.5
2014-Nov-30 00:33N 37°39' W 122°19'6 6.1
2014-Nov-29 23:33N 37°34' W 122°14'3 3.4
2014-Nov-29 22:33N 37°31' W 122°12'8 8.2
2014-Nov-29 21:33N 37°38' W 122°18'10 9.7
2014-Nov-29 20:33N 37°47' W 122°23'10 9.8
2014-Nov-29 19:33N 37°56' W 122°27'3 2.7
2014-Nov-29 18:33N 37°59' W 122°26'6 5.7
2014-Nov-29 17:33N 37°53' W 122°25'9 8.5
2014-Nov-29 16:33N 37°45' W 122°22'8 8.3
2014-Nov-29 15:33N 37°37' W 122°18'7 7.1
2014-Nov-29 14:33N 37°32' W 122°12'3 2.6
2014-Nov-29 13:33N 37°34' W 122°13'9 8.9
2014-Nov-29 12:33N 37°41' W 122°20'10 9.5
2014-Nov-29 11:33N 37°50' W 122°24'7 6.9
2014-Nov-29 10:33N 37°57' W 122°27'2 2.3
2014-Nov-29 09:33N 37°59' W 122°26'0 0.4
2014-Nov-29 08:33N 37°59' W 122°26'1 0.7
2014-Nov-29 07:33N 37°59' W 122°26'0 0.4
2014-Nov-29 06:33N 37°60' W 122°26'4 4.3
2014-Nov-29 05:33N 37°56' W 122°27'6 5.5
2014-Nov-29 04:33N 37°51' W 122°24'9 8.6
2014-Nov-29 03:33N 37°43' W 122°20'8 7.9
2014-Nov-29 02:33N 37°35' W 122°16'5 5.0
2014-Nov-29 01:33N 37°31' W 122°12'2 2.2
2014-Nov-29 00:33N 37°33' W 122°11'0 0.1
2014-Nov-28 23:33N 37°33' W 122°12'0 0.0
2014-Nov-28 22:33N 37°33' W 122°11'0 0.0
2014-Nov-28 21:33N 37°33' W 122°11'9 8.6
2014-Nov-28 20:33N 37°39' W 122°19'10 9.8
2014-Nov-28 19:33N 37°48' W 122°23'9 9.2
2014-Nov-28 18:33N 37°57' W 122°27'1 1.3
2014-Nov-28 17:33N 37°59' W 122°26'6 5.6
2014-Nov-28 16:33N 37°53' W 122°25'8 8.1
2014-Nov-28 15:33N 37°45' W 122°22'8 8.1
2014-Nov-28 14:33N 37°38' W 122°18'7 7.0
2014-Nov-28 13:33N 37°33' W 122°12'3 2.6
2014-Nov-28 12:32N 37°31' W 122°13'0 0.0
2014-Nov-28 11:32N 37°31' W 122°13'0 0.0
2014-Nov-28 10:15N 37°31' W 122°13'0 0.0
2014-Nov-28 09:30N 37°31' W 122°13'0 0.0
2014-Nov-28 08:33N 37°31' W 122°13'0 0.0
2014-Nov-28 07:16N 37°31' W 122°13'0 0.0
2014-Nov-28 06:27N 37°31' W 122°13'0 0.0
2014-Nov-28 05:25N 37°31' W 122°13'2 2.1
2014-Nov-28 04:33N 37°32' W 122°12'2 0.5
2014-Nov-28 00:30N 37°31' W 122°13'0 0.0
2014-Nov-27 23:33N 37°31' W 122°13'0 0.0
2014-Nov-27 22:32N 37°31' W 122°13'0 0.0
2014-Nov-27 21:33N 37°31' W 122°13'0 0.0
2014-Nov-27 20:33N 37°31' W 122°13'0 0.0
2014-Nov-27 19:33N 37°31' W 122°13'0 0.0
2014-Nov-27 18:31N 37°31' W 122°13'0 0.0
2014-Nov-27 17:33N 37°31' W 122°13'0 0.0
2014-Nov-27 16:33N 37°31' W 122°13'0 0.0
2014-Nov-27 15:33N 37°31' W 122°13'0 0.0
2014-Nov-27 14:33N 37°31' W 122°13'0 0.0
2014-Nov-27 13:33N 37°31' W 122°13'3 2.8
2014-Nov-27 12:32N 37°33' W 122°12'2 2.1
2014-Nov-27 11:33N 37°31' W 122°12'2 2.0
2014-Nov-27 10:33N 37°33' W 122°11'4 3.8
2014-Nov-27 09:33N 37°35' W 122°15'6 5.9
2014-Nov-27 08:33N 37°40' W 122°19'6 5.7
2014-Nov-27 07:33N 37°46' W 122°22'6 6.1
2014-Nov-27 06:33N 37°52' W 122°24'4 3.7
2014-Nov-27 05:33N 37°55' W 122°25'5 5.3
2014-Nov-27 04:33N 38°01' W 122°25'3 2.6
2014-Nov-27 03:33N 37°58' W 122°26'3 3.0
2014-Nov-27 02:33N 37°55' W 122°25'1 1.4
2014-Nov-27 01:33N 37°54' W 122°23'1 1.0
2014-Nov-27 00:33N 37°54' W 122°22'4 3.6
2014-Nov-26 23:33N 37°56' W 122°26'2 2.2
2014-Nov-26 22:33N 37°59' W 122°26'2 2.3
2014-Nov-26 21:33N 37°56' W 122°26'3 2.6
2014-Nov-26 20:31N 37°59' W 122°26'0 0.0
2014-Nov-26 19:33N 37°59' W 122°26'4 4.2
2014-Nov-26 18:33N 37°55' W 122°24'0 0.0
2014-Nov-26 17:33N 37°55' W 122°24'0 0.1
2014-Nov-26 16:33N 37°55' W 122°25'0 0.0
2014-Nov-26 15:33N 37°55' W 122°25'0 0.0
2014-Nov-26 14:33N 37°55' W 122°25'0 0.0
2014-Nov-26 13:33N 37°55' W 122°25'0 0.1
2014-Nov-26 12:33N 37°55' W 122°25'4 4.0
2014-Nov-26 11:33N 37°59' W 122°25'5 4.4
2014-Nov-26 10:25N 38°02' W 122°20'4 4.3
2014-Nov-26 09:33N 38°04' W 122°16'5 4.9
2014-Nov-26 08:26N 38°02' W 122°09'14 4.8
2014-Nov-26 05:23N 38°04' W 121°51'5 1.1
2014-Nov-26 01:18N 38°03' W 121°57'1 0.2
2014-Nov-25 18:32N 38°04' W 121°58'4 2.9
2014-Nov-25 17:15N 38°04' W 122°03'7 9.9
2014-Nov-25 16:33N 38°03' W 121°54'2 1.6
2014-Nov-25 15:27N 38°03' W 121°56'7 1.2
2014-Nov-25 09:20N 38°03' W 122°06'4 4.7
2014-Nov-25 08:33N 38°03' W 122°10'5 5.2
2014-Nov-25 07:33N 38°03' W 122°17'5 4.8
2014-Nov-25 06:33N 38°02' W 122°23'5 4.8
2014-Nov-25 05:33N 37°58' W 122°26'4 4.1
2014-Nov-25 04:33N 37°54' W 122°26'4 4.0
2014-Nov-25 03:33N 37°50' W 122°24'4 4.1
2014-Nov-25 02:33N 37°46' W 122°22'5 5.4
2014-Nov-25 01:33N 37°41' W 122°20'6 5.6
2014-Nov-25 00:33N 37°36' W 122°17'6 5.5
2014-Nov-24 23:28N 37°32' W 122°12'2 1.6
2014-Nov-24 22:29N 37°31' W 122°13'0 0.0
2014-Nov-24 19:24N 37°31' W 122°13'0 0.0
2014-Nov-24 18:32N 37°31' W 122°13'0 0.0
2014-Nov-24 17:33N 37°31' W 122°13'0 0.0
2014-Nov-24 16:20N 37°31' W 122°13'0 0.0
2014-Nov-24 15:20N 37°31' W 122°13'0 0.0
2014-Nov-24 14:30N 37°31' W 122°13'0 0.0
2014-Nov-24 13:33N 37°31' W 122°13'0 0.0
2014-Nov-24 12:32N 37°31' W 122°13'2 2.3
2014-Nov-24 11:33N 37°33' W 122°12'8 8.2
2014-Nov-24 10:33N 37°39' W 122°19'9 8.8
2014-Nov-24 09:33N 37°47' W 122°23'8 8.4
2014-Nov-24 08:33N 37°55' W 122°27'6 6.0
2014-Nov-24 07:32N 38°01' W 122°25'7 7.4
2014-Nov-24 06:33N 37°54' W 122°26'6 6.2
2014-Nov-24 05:33N 37°48' W 122°23'5 5.4
2014-Nov-24 04:33N 37°43' W 122°21'7 6.6
2014-Nov-24 03:33N 37°37' W 122°17'6 6.3
2014-Nov-24 02:31N 37°31' W 122°12'1 0.7
2014-Nov-24 01:11N 37°31' W 122°13'0 0.0
2014-Nov-24 00:30N 37°31' W 122°13'0 0.0
2014-Nov-23 23:25N 37°31' W 122°13'0 0.0
2014-Nov-23 22:24N 37°31' W 122°13'1 0.3
2014-Nov-23 18:16N 37°32' W 122°12'2 2.8
2014-Nov-23 17:33N 37°34' W 122°12'10 9.5
2014-Nov-23 16:33N 37°41' W 122°20'1010.1
2014-Nov-23 15:33N 37°50' W 122°24'9 8.8
2014-Nov-23 14:31N 37°60' W 122°26'3 2.7
2014-Nov-23 13:33N 37°57' W 122°27'6 5.6
2014-Nov-23 12:33N 37°52' W 122°25'9 8.5
2014-Nov-23 11:33N 37°44' W 122°21'8 7.6
2014-Nov-23 10:33N 37°37' W 122°17'6 6.4
2014-Nov-23 09:33N 37°32' W 122°12'1 1.4
2014-Nov-23 08:33N 37°31' W 122°13'0 0.1
2014-Nov-23 07:33N 37°31' W 122°13'2 2.3
2014-Nov-23 06:33N 37°33' W 122°12'10 2.6
2014-Nov-23 02:33N 37°41' W 122°20'9 8.9
2014-Nov-23 01:33N 37°49' W 122°24'9 9.3
2014-Nov-23 00:33N 37°58' W 122°26'0 0.2
2014-Nov-22 23:33N 37°58' W 122°27'5 4.8
2014-Nov-22 22:33N 37°53' W 122°26'8 8.0
2014-Nov-22 21:33N 37°46' W 122°22'8 8.5
2014-Nov-22 20:33N 37°38' W 122°18'7 6.8
2014-Nov-22 19:33N 37°33' W 122°12'1 0.8
2014-Nov-22 18:33N 37°34' W 122°13'9 9.1
2014-Nov-22 17:33N 37°41' W 122°20'10 9.8
2014-Nov-22 16:33N 37°50' W 122°24'7 7.2
2014-Nov-22 15:33N 37°57' W 122°27'2 2.0
2014-Nov-22 14:33N 37°59' W 122°26'6 6.3
2014-Nov-22 13:33N 37°53' W 122°25'8 7.6
2014-Nov-22 12:33N 37°46' W 122°22'8 8.1
2014-Nov-22 11:33N 37°38' W 122°18'8 7.9
2014-Nov-22 10:32N 37°32' W 122°12'0 0.1
2014-Nov-22 09:33N 37°32' W 122°12'9 8.7
2014-Nov-22 08:33N 37°39' W 122°18'10 9.6
2014-Nov-22 07:33N 37°48' W 122°23'8 8.2
2014-Nov-22 06:33N 37°55' W 122°27'6 5.5
2014-Nov-22 05:33N 38°01' W 122°25'7 7.5
2014-Nov-22 04:33N 37°53' W 122°25'6 6.5
2014-Nov-22 03:33N 37°47' W 122°23'7 6.6
2014-Nov-22 02:33N 37°41' W 122°20'8 7.9
2014-Nov-22 01:33N 37°34' W 122°14'3 2.5
2014-Nov-22 00:33N 37°33' W 122°12'7 6.7
2014-Nov-21 23:33N 37°37' W 122°17'7 6.8
2014-Nov-21 22:33N 37°44' W 122°21'  

Dump ship's entire track history